sensor_id;sensor_type;location;lat;lon;timestamp;P1;durP1;ratioP1;P2;durP2;ratioP2
21601;SDS011;10963;50.934;4.668;2022-09-20T00:01:10;4.13;;;1.40;;
21601;SDS011;10963;50.934;4.668;2022-09-20T00:03:41;4.07;;;1.33;;
21601;SDS011;10963;50.934;4.668;2022-09-20T00:06:12;2.37;;;1.50;;
21601;SDS011;10963;50.934;4.668;2022-09-20T00:08:39;3.20;;;1.30;;
21601;SDS011;10963;50.934;4.668;2022-09-20T00:11:09;1.90;;;1.13;;
21601;SDS011;10963;50.934;4.668;2022-09-20T00:13:40;3.00;;;1.50;;
21601;SDS011;10963;50.934;4.668;2022-09-20T00:16:13;2.40;;;1.20;;
21601;SDS011;10963;50.934;4.668;2022-09-20T00:18:46;4.50;;;1.50;;
21601;SDS011;10963;50.934;4.668;2022-09-20T00:21:18;3.70;;;1.30;;
21601;SDS011;10963;50.934;4.668;2022-09-20T00:23:50;6.97;;;1.40;;
21601;SDS011;10963;50.934;4.668;2022-09-20T00:26:18;3.93;;;1.20;;
21601;SDS011;10963;50.934;4.668;2022-09-20T00:28:44;7.17;;;1.47;;
21601;SDS011;10963;50.934;4.668;2022-09-20T00:31:11;4.63;;;1.40;;
21601;SDS011;10963;50.934;4.668;2022-09-20T00:33:37;3.10;;;1.40;;
21601;SDS011;10963;50.934;4.668;2022-09-20T00:36:22;1.53;;;1.30;;
21601;SDS011;10963;50.934;4.668;2022-09-20T00:38:47;5.30;;;1.63;;
21601;SDS011;10963;50.934;4.668;2022-09-20T00:41:13;2.80;;;1.37;;
21601;SDS011;10963;50.934;4.668;2022-09-20T00:43:40;5.40;;;1.83;;
21601;SDS011;10963;50.934;4.668;2022-09-20T00:49:18;7.83;;;1.50;;
21601;SDS011;10963;50.934;4.668;2022-09-20T00:51:48;1.60;;;1.27;;
21601;SDS011;10963;50.934;4.668;2022-09-20T00:54:19;5.10;;;1.80;;
21601;SDS011;10963;50.934;4.668;2022-09-20T00:56:49;2.20;;;1.60;;
21601;SDS011;10963;50.934;4.668;2022-09-20T00:59:20;4.53;;;1.67;;
21601;SDS011;10963;50.934;4.668;2022-09-20T01:01:51;6.00;;;1.70;;
21601;SDS011;10963;50.934;4.668;2022-09-20T01:04:23;5.73;;;2.03;;
21601;SDS011;10963;50.934;4.668;2022-09-20T01:06:55;3.87;;;1.50;;
21601;SDS011;10963;50.934;4.668;2022-09-20T01:09:25;5.30;;;1.97;;
21601;SDS011;10963;50.934;4.668;2022-09-20T01:11:55;5.17;;;2.10;;
21601;SDS011;10963;50.934;4.668;2022-09-20T01:14:28;4.93;;;2.20;;
21601;SDS011;10963;50.934;4.668;2022-09-20T01:16:55;5.70;;;2.20;;
21601;SDS011;10963;50.934;4.668;2022-09-20T01:25:05;3.67;;;1.60;;
21601;SDS011;10963;50.934;4.668;2022-09-20T01:27:43;6.53;;;1.87;;
21601;SDS011;10963;50.934;4.668;2022-09-20T01:30:21;2.93;;;1.87;;
21601;SDS011;10963;50.934;4.668;2022-09-20T01:35:43;3.47;;;1.53;;
21601;SDS011;10963;50.934;4.668;2022-09-20T01:38:33;2.63;;;1.70;;
21601;SDS011;10963;50.934;4.668;2022-09-20T01:41:19;3.00;;;2.00;;
21601;SDS011;10963;50.934;4.668;2022-09-20T01:44:29;2.00;;;1.70;;
21601;SDS011;10963;50.934;4.668;2022-09-20T01:46:51;7.00;;;1.80;;
21601;SDS011;10963;50.934;4.668;2022-09-20T01:52:13;4.40;;;1.97;;
21601;SDS011;10963;50.934;4.668;2022-09-20T01:57:51;4.57;;;2.07;;
21601;SDS011;10963;50.934;4.668;2022-09-20T02:09:13;5.87;;;2.93;;
21601;SDS011;10963;50.934;4.668;2022-09-20T02:18:01;4.20;;;2.43;;
21601;SDS011;10963;50.934;4.668;2022-09-20T02:28:44;7.67;;;2.33;;
21601;SDS011;10963;50.934;4.668;2022-09-20T02:36:46;6.17;;;2.33;;
21601;SDS011;10963;50.934;4.668;2022-09-20T02:39:36;4.87;;;1.97;;
21601;SDS011;10963;50.934;4.668;2022-09-20T02:45:03;4.87;;;2.17;;
21601;SDS011;10963;50.934;4.668;2022-09-20T02:47:39;5.70;;;2.23;;
21601;SDS011;10963;50.934;4.668;2022-09-20T02:50:17;4.53;;;2.30;;
21601;SDS011;10963;50.934;4.668;2022-09-20T02:58:32;5.90;;;2.27;;
21601;SDS011;10963;50.934;4.668;2022-09-20T03:04:07;6.87;;;2.80;;
21601;SDS011;10963;50.934;4.668;2022-09-20T03:06:49;5.60;;;2.60;;
21601;SDS011;10963;50.934;4.668;2022-09-20T03:12:21;5.40;;;2.43;;
21601;SDS011;10963;50.934;4.668;2022-09-20T03:18:18;6.17;;;2.67;;
21601;SDS011;10963;50.934;4.668;2022-09-20T03:34:49;6.00;;;3.07;;
21601;SDS011;10963;50.934;4.668;2022-09-20T03:48:30;10.47;;;3.43;;
21601;SDS011;10963;50.934;4.668;2022-09-20T03:51:40;7.80;;;3.23;;
21601;SDS011;10963;50.934;4.668;2022-09-20T04:00:15;7.63;;;3.77;;
21601;SDS011;10963;50.934;4.668;2022-09-20T04:08:24;5.30;;;2.63;;
21601;SDS011;10963;50.934;4.668;2022-09-20T04:13:46;8.40;;;3.33;;
21601;SDS011;10963;50.934;4.668;2022-09-20T04:16:34;6.37;;;3.17;;
21601;SDS011;10963;50.934;4.668;2022-09-20T04:19:20;8.90;;;2.97;;
21601;SDS011;10963;50.934;4.668;2022-09-20T04:22:06;7.23;;;2.80;;
21601;SDS011;10963;50.934;4.668;2022-09-20T04:24:36;6.60;;;3.00;;
21601;SDS011;10963;50.934;4.668;2022-09-20T04:29:46;6.00;;;3.27;;
21601;SDS011;10963;50.934;4.668;2022-09-20T04:35:49;6.40;;;2.87;;
21601;SDS011;10963;50.934;4.668;2022-09-20T04:38:20;7.73;;;3.37;;
21601;SDS011;10963;50.934;4.668;2022-09-20T04:46:13;8.73;;;5.93;;
21601;SDS011;10963;50.934;4.668;2022-09-20T05:00:05;10.30;;;6.47;;
21601;SDS011;10963;50.934;4.668;2022-09-20T05:25:22;9.23;;;5.90;;
21601;SDS011;10963;50.934;4.668;2022-09-20T05:28:22;13.10;;;5.40;;
21601;SDS011;10963;50.934;4.668;2022-09-20T05:31:23;11.00;;;5.93;;
21601;SDS011;10963;50.934;4.668;2022-09-20T05:36:48;9.43;;;6.00;;
21601;SDS011;10963;50.934;4.668;2022-09-20T05:39:40;11.67;;;6.87;;
21601;SDS011;10963;50.934;4.668;2022-09-20T05:42:31;13.43;;;6.23;;
21601;SDS011;10963;50.934;4.668;2022-09-20T06:03:50;9.77;;;6.07;;
21601;SDS011;10963;50.934;4.668;2022-09-20T06:06:39;8.60;;;6.50;;
21601;SDS011;10963;50.934;4.668;2022-09-20T06:12:14;7.60;;;6.40;;
21601;SDS011;10963;50.934;4.668;2022-09-20T06:14:56;13.70;;;6.60;;
21601;SDS011;10963;50.934;4.668;2022-09-20T06:23:23;10.37;;;6.63;;
21601;SDS011;10963;50.934;4.668;2022-09-20T06:25:51;10.37;;;6.33;;
21601;SDS011;10963;50.934;4.668;2022-09-20T06:28:33;9.83;;;6.10;;
21601;SDS011;10963;50.934;4.668;2022-09-20T06:31:05;10.63;;;6.63;;
21601;SDS011;10963;50.934;4.668;2022-09-20T06:33:37;7.30;;;6.17;;
21601;SDS011;10963;50.934;4.668;2022-09-20T06:36:11;9.23;;;6.13;;
21601;SDS011;10963;50.934;4.668;2022-09-20T06:39:18;12.73;;;6.60;;
21601;SDS011;10963;50.934;4.668;2022-09-20T06:42:24;15.03;;;6.43;;
21601;SDS011;10963;50.934;4.668;2022-09-20T06:44:55;8.97;;;6.00;;
21601;SDS011;10963;50.934;4.668;2022-09-20T06:47:26;11.00;;;5.40;;
21601;SDS011;10963;50.934;4.668;2022-09-20T06:49:53;11.87;;;5.90;;
21601;SDS011;10963;50.934;4.668;2022-09-20T06:52:21;9.37;;;5.90;;
21601;SDS011;10963;50.934;4.668;2022-09-20T06:54:48;11.10;;;5.70;;
21601;SDS011;10963;50.934;4.668;2022-09-20T06:57:17;10.33;;;6.00;;
21601;SDS011;10963;50.934;4.668;2022-09-20T06:59:48;9.90;;;5.73;;
21601;SDS011;10963;50.934;4.668;2022-09-20T07:02:16;9.30;;;5.13;;
21601;SDS011;10963;50.934;4.668;2022-09-20T07:04:42;9.80;;;5.10;;
21601;SDS011;10963;50.934;4.668;2022-09-20T07:07:11;10.67;;;4.73;;
21601;SDS011;10963;50.934;4.668;2022-09-20T07:09:42;9.97;;;4.80;;
21601;SDS011;10963;50.934;4.668;2022-09-20T07:12:13;9.87;;;5.27;;
21601;SDS011;10963;50.934;4.668;2022-09-20T07:14:38;12.50;;;5.33;;
21601;SDS011;10963;50.934;4.668;2022-09-20T07:17:07;6.93;;;4.60;;
21601;SDS011;10963;50.934;4.668;2022-09-20T07:19:32;8.17;;;4.50;;
21601;SDS011;10963;50.934;4.668;2022-09-20T07:21:59;17.00;;;4.90;;
21601;SDS011;10963;50.934;4.668;2022-09-20T07:24:27;10.70;;;4.67;;
21601;SDS011;10963;50.934;4.668;2022-09-20T07:26:57;9.67;;;4.57;;
21601;SDS011;10963;50.934;4.668;2022-09-20T07:29:24;8.50;;;4.70;;
21601;SDS011;10963;50.934;4.668;2022-09-20T07:31:51;10.47;;;4.50;;
21601;SDS011;10963;50.934;4.668;2022-09-20T07:34:19;12.63;;;4.50;;
21601;SDS011;10963;50.934;4.668;2022-09-20T07:36:48;10.40;;;4.10;;
21601;SDS011;10963;50.934;4.668;2022-09-20T07:39:15;11.13;;;4.63;;
21601;SDS011;10963;50.934;4.668;2022-09-20T07:41:41;12.93;;;4.50;;
21601;SDS011;10963;50.934;4.668;2022-09-20T07:44:12;10.20;;;4.73;;
21601;SDS011;10963;50.934;4.668;2022-09-20T07:46:55;6.80;;;4.60;;
21601;SDS011;10963;50.934;4.668;2022-09-20T07:49:23;11.73;;;4.73;;
21601;SDS011;10963;50.934;4.668;2022-09-20T07:51:50;10.63;;;5.03;;
21601;SDS011;10963;50.934;4.668;2022-09-20T07:54:18;8.60;;;4.93;;
21601;SDS011;10963;50.934;4.668;2022-09-20T07:56:49;10.13;;;4.87;;
21601;SDS011;10963;50.934;4.668;2022-09-20T07:59:14;9.03;;;4.90;;
21601;SDS011;10963;50.934;4.668;2022-09-20T08:01:40;12.63;;;4.43;;
21601;SDS011;10963;50.934;4.668;2022-09-20T08:04:07;10.10;;;5.00;;
21601;SDS011;10963;50.934;4.668;2022-09-20T08:06:37;8.23;;;4.67;;
21601;SDS011;10963;50.934;4.668;2022-09-20T08:09:07;10.90;;;4.80;;
21601;SDS011;10963;50.934;4.668;2022-09-20T08:11:33;9.03;;;5.10;;
21601;SDS011;10963;50.934;4.668;2022-09-20T08:14:03;10.37;;;5.07;;
21601;SDS011;10963;50.934;4.668;2022-09-20T08:16:30;12.27;;;4.97;;
21601;SDS011;10963;50.934;4.668;2022-09-20T08:18:57;9.00;;;5.10;;
21601;SDS011;10963;50.934;4.668;2022-09-20T08:21:25;9.57;;;5.27;;
21601;SDS011;10963;50.934;4.668;2022-09-20T08:23:59;9.27;;;5.20;;
21601;SDS011;10963;50.934;4.668;2022-09-20T08:26:28;9.67;;;4.80;;
21601;SDS011;10963;50.934;4.668;2022-09-20T08:28:56;8.63;;;5.50;;
21601;SDS011;10963;50.934;4.668;2022-09-20T08:31:24;12.00;;;4.67;;
21601;SDS011;10963;50.934;4.668;2022-09-20T08:33:52;10.17;;;5.27;;
21601;SDS011;10963;50.934;4.668;2022-09-20T08:36:23;8.50;;;5.00;;
21601;SDS011;10963;50.934;4.668;2022-09-20T08:38:50;13.47;;;5.13;;
21601;SDS011;10963;50.934;4.668;2022-09-20T08:41:21;8.30;;;5.30;;
21601;SDS011;10963;50.934;4.668;2022-09-20T08:46:32;15.17;;;5.67;;
21601;SDS011;10963;50.934;4.668;2022-09-20T08:49:05;16.37;;;5.70;;
21601;SDS011;10963;50.934;4.668;2022-09-20T08:51:36;7.30;;;5.07;;
21601;SDS011;10963;50.934;4.668;2022-09-20T08:54:06;16.70;;;5.80;;
21601;SDS011;10963;50.934;4.668;2022-09-20T08:56:36;7.83;;;5.07;;
21601;SDS011;10963;50.934;4.668;2022-09-20T08:59:02;11.90;;;4.83;;
21601;SDS011;10963;50.934;4.668;2022-09-20T09:01:31;11.50;;;4.87;;
21601;SDS011;10963;50.934;4.668;2022-09-20T09:04:01;9.60;;;4.87;;
21601;SDS011;10963;50.934;4.668;2022-09-20T09:06:36;12.63;;;5.57;;
21601;SDS011;10963;50.934;4.668;2022-09-20T09:09:06;9.03;;;5.10;;
21601;SDS011;10963;50.934;4.668;2022-09-20T09:11:43;9.20;;;4.90;;
21601;SDS011;10963;50.934;4.668;2022-09-20T09:17:19;11.40;;;4.87;;
21601;SDS011;10963;50.934;4.668;2022-09-20T09:19:58;11.57;;;4.83;;
21601;SDS011;10963;50.934;4.668;2022-09-20T09:25:18;7.93;;;4.50;;
21601;SDS011;10963;50.934;4.668;2022-09-20T09:33:17;10.53;;;4.83;;
21601;SDS011;10963;50.934;4.668;2022-09-20T09:38:31;10.67;;;3.70;;
21601;SDS011;10963;50.934;4.668;2022-09-20T09:41:05;11.63;;;4.10;;
21601;SDS011;10963;50.934;4.668;2022-09-20T09:44:01;11.07;;;3.53;;
21601;SDS011;10963;50.934;4.668;2022-09-20T09:46:34;10.37;;;4.33;;
21601;SDS011;10963;50.934;4.668;2022-09-20T09:49:14;9.97;;;3.50;;
21601;SDS011;10963;50.934;4.668;2022-09-20T09:52:26;6.97;;;3.90;;
21601;SDS011;10963;50.934;4.668;2022-09-20T09:54:41;8.27;;;3.57;;
21601;SDS011;10963;50.934;4.668;2022-09-20T10:13:24;5.70;;;3.00;;
21601;SDS011;10963;50.934;4.668;2022-09-20T10:25:24;8.40;;;3.50;;
21601;SDS011;10963;50.934;4.668;2022-09-20T10:36:43;12.07;;;3.27;;
21601;SDS011;10963;50.934;4.668;2022-09-20T10:45:02;7.17;;;3.17;;
21601;SDS011;10963;50.934;4.668;2022-09-20T10:47:58;10.23;;;3.40;;
21601;SDS011;10963;50.934;4.668;2022-09-20T10:53:03;6.73;;;2.77;;
21601;SDS011;10963;50.934;4.668;2022-09-20T10:55:45;7.27;;;2.63;;
21601;SDS011;10963;50.934;4.668;2022-09-20T11:09:32;6.10;;;2.90;;
21601;SDS011;10963;50.934;4.668;2022-09-20T11:12:16;7.97;;;2.47;;
21601;SDS011;10963;50.934;4.668;2022-09-20T11:14:52;8.40;;;2.40;;
21601;SDS011;10963;50.934;4.668;2022-09-20T11:17:37;4.93;;;2.30;;
21601;SDS011;10963;50.934;4.668;2022-09-20T11:20:14;5.73;;;2.00;;
21601;SDS011;10963;50.934;4.668;2022-09-20T11:22:48;7.23;;;2.63;;
21601;SDS011;10963;50.934;4.668;2022-09-20T11:36:43;5.03;;;2.00;;
21601;SDS011;10963;50.934;4.668;2022-09-20T11:39:21;4.40;;;1.40;;
21601;SDS011;10963;50.934;4.668;2022-09-20T11:42:10;4.33;;;1.30;;
21601;SDS011;10963;50.934;4.668;2022-09-20T11:44:40;8.20;;;1.67;;
21601;SDS011;10963;50.934;4.668;2022-09-20T11:47:41;1.90;;;1.20;;
21601;SDS011;10963;50.934;4.668;2022-09-20T11:53:07;6.57;;;1.60;;
21601;SDS011;10963;50.934;4.668;2022-09-20T11:56:04;3.53;;;1.27;;
21601;SDS011;10963;50.934;4.668;2022-09-20T11:58:48;5.70;;;1.30;;
21601;SDS011;10963;50.934;4.668;2022-09-20T12:01:36;5.20;;;1.20;;
21601;SDS011;10963;50.934;4.668;2022-09-20T12:06:57;5.40;;;1.10;;
21601;SDS011;10963;50.934;4.668;2022-09-20T12:09:29;4.90;;;1.67;;
21601;SDS011;10963;50.934;4.668;2022-09-20T12:11:59;3.87;;;1.20;;
21601;SDS011;10963;50.934;4.668;2022-09-20T12:15:21;4.43;;;1.30;;
21601;SDS011;10963;50.934;4.668;2022-09-20T12:26:07;6.70;;;1.67;;
21601;SDS011;10963;50.934;4.668;2022-09-20T12:28:40;9.00;;;1.80;;
21601;SDS011;10963;50.934;4.668;2022-09-20T12:36:40;8.77;;;2.80;;
21601;SDS011;10963;50.934;4.668;2022-09-20T12:52:50;11.00;;;1.87;;
21601;SDS011;10963;50.934;4.668;2022-09-20T13:03:35;5.27;;;2.00;;
21601;SDS011;10963;50.934;4.668;2022-09-20T13:08:33;2.53;;;1.20;;
21601;SDS011;10963;50.934;4.668;2022-09-20T13:11:15;4.13;;;1.00;;
21601;SDS011;10963;50.934;4.668;2022-09-20T13:16:30;2.77;;;0.90;;
21601;SDS011;10963;50.934;4.668;2022-09-20T13:19:02;3.63;;;1.50;;
21601;SDS011;10963;50.934;4.668;2022-09-20T13:21:37;4.13;;;1.10;;
21601;SDS011;10963;50.934;4.668;2022-09-20T13:26:43;7.60;;;1.30;;
21601;SDS011;10963;50.934;4.668;2022-09-20T13:29:53;6.00;;;1.40;;
21601;SDS011;10963;50.934;4.668;2022-09-20T13:32:26;5.47;;;1.60;;
21601;SDS011;10963;50.934;4.668;2022-09-20T13:37:45;5.17;;;1.43;;
21601;SDS011;10963;50.934;4.668;2022-09-20T13:40:19;6.57;;;1.50;;
21601;SDS011;10963;50.934;4.668;2022-09-20T13:43:02;4.73;;;1.70;;
21601;SDS011;10963;50.934;4.668;2022-09-20T13:45:31;3.57;;;1.30;;
21601;SDS011;10963;50.934;4.668;2022-09-20T13:48:00;7.60;;;1.73;;
21601;SDS011;10963;50.934;4.668;2022-09-20T13:52:56;5.47;;;1.73;;
21601;SDS011;10963;50.934;4.668;2022-09-20T13:55:37;3.30;;;2.23;;
21601;SDS011;10963;50.934;4.668;2022-09-20T14:00:52;9.70;;;2.20;;
21601;SDS011;10963;50.934;4.668;2022-09-20T14:03:20;8.20;;;2.60;;
21601;SDS011;10963;50.934;4.668;2022-09-20T14:05:48;6.57;;;2.03;;
21601;SDS011;10963;50.934;4.668;2022-09-20T14:08:29;5.00;;;2.47;;
21601;SDS011;10963;50.934;4.668;2022-09-20T14:11:07;4.80;;;2.80;;
21601;SDS011;10963;50.934;4.668;2022-09-20T14:13:45;4.50;;;2.50;;
21601;SDS011;10963;50.934;4.668;2022-09-20T14:16:15;6.53;;;2.97;;
21601;SDS011;10963;50.934;4.668;2022-09-20T14:18:45;6.00;;;2.60;;
21601;SDS011;10963;50.934;4.668;2022-09-20T14:21:13;4.03;;;2.20;;
21601;SDS011;10963;50.934;4.668;2022-09-20T14:31:53;8.73;;;2.10;;
21601;SDS011;10963;50.934;4.668;2022-09-20T14:34:20;8.13;;;1.80;;
21601;SDS011;10963;50.934;4.668;2022-09-20T14:36:47;5.73;;;1.60;;
21601;SDS011;10963;50.934;4.668;2022-09-20T14:39:16;5.43;;;1.50;;
21601;SDS011;10963;50.934;4.668;2022-09-20T14:41:48;4.97;;;1.67;;
21601;SDS011;10963;50.934;4.668;2022-09-20T14:44:22;4.27;;;1.30;;
21601;SDS011;10963;50.934;4.668;2022-09-20T14:46:55;7.50;;;1.77;;
21601;SDS011;10963;50.934;4.668;2022-09-20T14:49:31;4.47;;;1.50;;
21601;SDS011;10963;50.934;4.668;2022-09-20T14:57:52;3.93;;;1.23;;
21601;SDS011;10963;50.934;4.668;2022-09-20T15:00:23;1.90;;;1.23;;
21601;SDS011;10963;50.934;4.668;2022-09-20T15:02:49;4.33;;;1.73;;
21601;SDS011;10963;50.934;4.668;2022-09-20T15:05:23;3.17;;;1.47;;
21601;SDS011;10963;50.934;4.668;2022-09-20T15:07:51;4.70;;;1.50;;
21601;SDS011;10963;50.934;4.668;2022-09-20T15:10:24;2.23;;;1.40;;
21601;SDS011;10963;50.934;4.668;2022-09-20T15:12:53;7.20;;;1.20;;
21601;SDS011;10963;50.934;4.668;2022-09-20T15:15:21;4.63;;;1.40;;
21601;SDS011;10963;50.934;4.668;2022-09-20T15:17:47;4.30;;;1.13;;
21601;SDS011;10963;50.934;4.668;2022-09-20T15:20:18;5.43;;;1.10;;
21601;SDS011;10963;50.934;4.668;2022-09-20T15:22:47;4.27;;;1.40;;
21601;SDS011;10963;50.934;4.668;2022-09-20T15:25:18;3.13;;;1.30;;
21601;SDS011;10963;50.934;4.668;2022-09-20T15:27:45;4.60;;;1.30;;
21601;SDS011;10963;50.934;4.668;2022-09-20T15:30:13;4.67;;;1.40;;
21601;SDS011;10963;50.934;4.668;2022-09-20T15:32:41;2.50;;;1.47;;
21601;SDS011;10963;50.934;4.668;2022-09-20T15:35:12;3.93;;;1.27;;
21601;SDS011;10963;50.934;4.668;2022-09-20T15:37:41;2.30;;;1.00;;
21601;SDS011;10963;50.934;4.668;2022-09-20T15:40:07;11.67;;;1.37;;
21601;SDS011;10963;50.934;4.668;2022-09-20T15:42:35;5.30;;;1.60;;
21601;SDS011;10963;50.934;4.668;2022-09-20T15:45:06;2.63;;;1.43;;
21601;SDS011;10963;50.934;4.668;2022-09-20T15:47:39;7.30;;;1.47;;
21601;SDS011;10963;50.934;4.668;2022-09-20T15:50:07;3.93;;;1.30;;
21601;SDS011;10963;50.934;4.668;2022-09-20T15:52:37;8.47;;;1.40;;
21601;SDS011;10963;50.934;4.668;2022-09-20T15:55:08;5.57;;;2.67;;
21601;SDS011;10963;50.934;4.668;2022-09-20T15:57:36;6.40;;;1.67;;
21601;SDS011;10963;50.934;4.668;2022-09-20T16:00:04;5.37;;;1.63;;
21601;SDS011;10963;50.934;4.668;2022-09-20T16:02:34;6.07;;;1.50;;
21601;SDS011;10963;50.934;4.668;2022-09-20T16:05:00;6.90;;;1.60;;
21601;SDS011;10963;50.934;4.668;2022-09-20T16:07:27;4.83;;;1.50;;
21601;SDS011;10963;50.934;4.668;2022-09-20T16:09:53;6.77;;;1.70;;
21601;SDS011;10963;50.934;4.668;2022-09-20T16:12:20;3.70;;;1.90;;
21601;SDS011;10963;50.934;4.668;2022-09-20T16:14:48;6.00;;;1.63;;
21601;SDS011;10963;50.934;4.668;2022-09-20T16:17:14;6.27;;;1.73;;
21601;SDS011;10963;50.934;4.668;2022-09-20T16:19:41;5.83;;;1.87;;
21601;SDS011;10963;50.934;4.668;2022-09-20T16:22:07;2.93;;;1.70;;
21601;SDS011;10963;50.934;4.668;2022-09-20T16:24:36;5.47;;;2.30;;
21601;SDS011;10963;50.934;4.668;2022-09-20T16:27:03;5.87;;;1.80;;
21601;SDS011;10963;50.934;4.668;2022-09-20T16:29:30;5.77;;;1.87;;
21601;SDS011;10963;50.934;4.668;2022-09-20T16:32:00;6.57;;;1.80;;
21601;SDS011;10963;50.934;4.668;2022-09-20T16:37:09;7.17;;;1.80;;
21601;SDS011;10963;50.934;4.668;2022-09-20T16:39:40;4.00;;;1.73;;
21601;SDS011;10963;50.934;4.668;2022-09-20T16:42:09;4.13;;;1.97;;
21601;SDS011;10963;50.934;4.668;2022-09-20T16:44:36;3.57;;;1.87;;
21601;SDS011;10963;50.934;4.668;2022-09-20T16:47:05;12.23;;;2.27;;
21601;SDS011;10963;50.934;4.668;2022-09-20T16:49:34;5.93;;;1.43;;
21601;SDS011;10963;50.934;4.668;2022-09-20T16:52:05;11.00;;;2.10;;
21601;SDS011;10963;50.934;4.668;2022-09-20T16:54:33;5.53;;;1.90;;
21601;SDS011;10963;50.934;4.668;2022-09-20T16:56:59;6.33;;;2.03;;
21601;SDS011;10963;50.934;4.668;2022-09-20T16:59:25;3.90;;;1.70;;
21601;SDS011;10963;50.934;4.668;2022-09-20T17:01:54;5.67;;;2.20;;
21601;SDS011;10963;50.934;4.668;2022-09-20T17:04:19;11.73;;;2.00;;
21601;SDS011;10963;50.934;4.668;2022-09-20T17:06:48;7.30;;;1.90;;
21601;SDS011;10963;50.934;4.668;2022-09-20T17:09:17;5.20;;;2.20;;
21601;SDS011;10963;50.934;4.668;2022-09-20T17:11:48;4.23;;;1.90;;
21601;SDS011;10963;50.934;4.668;2022-09-20T17:14:15;8.80;;;2.27;;
21601;SDS011;10963;50.934;4.668;2022-09-20T17:16:46;6.03;;;1.90;;
21601;SDS011;10963;50.934;4.668;2022-09-20T17:19:16;3.30;;;2.13;;
21601;SDS011;10963;50.934;4.668;2022-09-20T17:21:44;6.60;;;2.10;;
21601;SDS011;10963;50.934;4.668;2022-09-20T17:24:14;5.07;;;2.20;;
21601;SDS011;10963;50.934;4.668;2022-09-20T17:26:42;5.00;;;1.80;;
21601;SDS011;10963;50.934;4.668;2022-09-20T17:29:09;4.97;;;2.30;;
21601;SDS011;10963;50.934;4.668;2022-09-20T17:31:39;4.60;;;2.03;;
21601;SDS011;10963;50.934;4.668;2022-09-20T17:34:10;4.83;;;1.87;;
21601;SDS011;10963;50.934;4.668;2022-09-20T17:36:42;6.37;;;2.13;;
21601;SDS011;10963;50.934;4.668;2022-09-20T17:39:12;3.20;;;2.00;;
21601;SDS011;10963;50.934;4.668;2022-09-20T17:41:42;3.93;;;2.00;;
21601;SDS011;10963;50.934;4.668;2022-09-20T17:44:12;5.87;;;2.20;;
21601;SDS011;10963;50.934;4.668;2022-09-20T17:46:42;4.73;;;2.00;;
21601;SDS011;10963;50.934;4.668;2022-09-20T17:49:11;6.50;;;2.20;;
21601;SDS011;10963;50.934;4.668;2022-09-20T17:51:42;4.93;;;1.90;;
21601;SDS011;10963;50.934;4.668;2022-09-20T17:54:11;3.90;;;2.20;;
21601;SDS011;10963;50.934;4.668;2022-09-20T17:56:41;3.80;;;1.93;;
21601;SDS011;10963;50.934;4.668;2022-09-20T17:59:11;3.97;;;2.03;;
21601;SDS011;10963;50.934;4.668;2022-09-20T18:01:40;5.10;;;2.30;;
21601;SDS011;10963;50.934;4.668;2022-09-20T18:04:09;2.60;;;2.40;;
21601;SDS011;10963;50.934;4.668;2022-09-20T18:09:12;7.97;;;2.60;;
21601;SDS011;10963;50.934;4.668;2022-09-20T18:11:41;5.27;;;2.80;;
21601;SDS011;10963;50.934;4.668;2022-09-20T18:14:10;13.00;;;2.73;;
21601;SDS011;10963;50.934;4.668;2022-09-20T18:16:39;4.40;;;2.67;;
21601;SDS011;10963;50.934;4.668;2022-09-20T18:19:07;10.63;;;3.20;;
21601;SDS011;10963;50.934;4.668;2022-09-20T18:21:34;12.60;;;3.73;;
21601;SDS011;10963;50.934;4.668;2022-09-20T18:24:05;10.00;;;3.30;;
21601;SDS011;10963;50.934;4.668;2022-09-20T18:26:32;6.80;;;2.83;;
21601;SDS011;10963;50.934;4.668;2022-09-20T18:28:59;4.43;;;2.90;;
21601;SDS011;10963;50.934;4.668;2022-09-20T18:31:27;5.10;;;2.17;;
21601;SDS011;10963;50.934;4.668;2022-09-20T18:34:00;3.93;;;2.83;;
21601;SDS011;10963;50.934;4.668;2022-09-20T18:36:31;6.83;;;3.80;;
21601;SDS011;10963;50.934;4.668;2022-09-20T18:38:58;19.17;;;4.43;;
21601;SDS011;10963;50.934;4.668;2022-09-20T18:41:28;7.43;;;2.77;;
21601;SDS011;10963;50.934;4.668;2022-09-20T18:43:59;7.23;;;2.70;;
21601;SDS011;10963;50.934;4.668;2022-09-20T18:46:28;3.80;;;2.43;;
21601;SDS011;10963;50.934;4.668;2022-09-20T18:48:58;6.23;;;2.53;;
21601;SDS011;10963;50.934;4.668;2022-09-20T18:51:31;6.60;;;2.40;;
21601;SDS011;10963;50.934;4.668;2022-09-20T18:53:57;5.90;;;2.93;;
21601;SDS011;10963;50.934;4.668;2022-09-20T18:56:25;7.77;;;2.57;;
21601;SDS011;10963;50.934;4.668;2022-09-20T18:59:00;9.63;;;2.40;;
21601;SDS011;10963;50.934;4.668;2022-09-20T19:12:51;4.33;;;2.50;;
21601;SDS011;10963;50.934;4.668;2022-09-20T19:26:50;6.87;;;3.10;;
21601;SDS011;10963;50.934;4.668;2022-09-20T19:29:17;6.30;;;3.20;;
21601;SDS011;10963;50.934;4.668;2022-09-20T19:31:49;5.17;;;3.20;;
21601;SDS011;10963;50.934;4.668;2022-09-20T19:34:19;9.43;;;3.50;;
21601;SDS011;10963;50.934;4.668;2022-09-20T19:39:46;7.53;;;5.40;;
21601;SDS011;10963;50.934;4.668;2022-09-20T19:42:47;7.20;;;4.00;;
21601;SDS011;10963;50.934;4.668;2022-09-20T19:48:22;7.83;;;3.70;;
21601;SDS011;10963;50.934;4.668;2022-09-20T19:51:01;5.57;;;3.80;;
21601;SDS011;10963;50.934;4.668;2022-09-20T19:53:29;8.97;;;3.80;;
21601;SDS011;10963;50.934;4.668;2022-09-20T19:55:56;10.20;;;4.27;;
21601;SDS011;10963;50.934;4.668;2022-09-20T19:58:26;3.53;;;3.10;;
21601;SDS011;10963;50.934;4.668;2022-09-20T20:00:52;5.27;;;4.10;;
21601;SDS011;10963;50.934;4.668;2022-09-20T20:03:18;6.10;;;3.47;;
21601;SDS011;10963;50.934;4.668;2022-09-20T20:05:49;5.77;;;4.00;;
21601;SDS011;10963;50.934;4.668;2022-09-20T20:08:22;6.10;;;4.10;;
21601;SDS011;10963;50.934;4.668;2022-09-20T20:24:53;6.27;;;3.97;;
21601;SDS011;10963;50.934;4.668;2022-09-20T20:27:22;4.30;;;3.40;;
21601;SDS011;10963;50.934;4.668;2022-09-20T20:29:49;9.20;;;3.77;;
21601;SDS011;10963;50.934;4.668;2022-09-20T20:32:17;4.63;;;3.63;;
21601;SDS011;10963;50.934;4.668;2022-09-20T20:34:43;7.27;;;3.70;;
21601;SDS011;10963;50.934;4.668;2022-09-20T20:37:11;8.23;;;3.80;;
21601;SDS011;10963;50.934;4.668;2022-09-20T20:39:38;7.00;;;4.13;;
21601;SDS011;10963;50.934;4.668;2022-09-20T20:42:06;8.70;;;3.63;;
21601;SDS011;10963;50.934;4.668;2022-09-20T20:44:36;7.33;;;4.00;;
21601;SDS011;10963;50.934;4.668;2022-09-20T20:47:07;7.53;;;3.97;;
21601;SDS011;10963;50.934;4.668;2022-09-20T20:49:33;8.30;;;4.30;;
21601;SDS011;10963;50.934;4.668;2022-09-20T20:51:59;5.47;;;3.43;;
21601;SDS011;10963;50.934;4.668;2022-09-20T20:54:28;6.93;;;4.20;;
21601;SDS011;10963;50.934;4.668;2022-09-20T20:56:54;9.63;;;4.27;;
21601;SDS011;10963;50.934;4.668;2022-09-20T20:59:20;7.13;;;4.40;;
21601;SDS011;10963;50.934;4.668;2022-09-20T21:01:45;5.63;;;4.47;;
21601;SDS011;10963;50.934;4.668;2022-09-20T21:04:11;7.47;;;4.30;;
21601;SDS011;10963;50.934;4.668;2022-09-20T21:06:43;4.67;;;4.03;;
21601;SDS011;10963;50.934;4.668;2022-09-20T21:09:09;4.40;;;4.00;;
21601;SDS011;10963;50.934;4.668;2022-09-20T21:11:36;9.47;;;4.23;;
21601;SDS011;10963;50.934;4.668;2022-09-20T21:14:07;6.97;;;4.17;;
21601;SDS011;10963;50.934;4.668;2022-09-20T21:16:35;5.60;;;4.03;;
21601;SDS011;10963;50.934;4.668;2022-09-20T21:19:02;8.53;;;3.97;;
21601;SDS011;10963;50.934;4.668;2022-09-20T21:21:34;8.27;;;5.17;;
21601;SDS011;10963;50.934;4.668;2022-09-20T21:24:03;8.90;;;4.20;;
21601;SDS011;10963;50.934;4.668;2022-09-20T21:26:31;7.53;;;3.97;;
21601;SDS011;10963;50.934;4.668;2022-09-20T21:29:01;8.93;;;4.43;;
21601;SDS011;10963;50.934;4.668;2022-09-20T21:31:30;6.03;;;4.10;;
21601;SDS011;10963;50.934;4.668;2022-09-20T21:34:00;11.50;;;4.30;;
21601;SDS011;10963;50.934;4.668;2022-09-20T21:36:28;6.03;;;4.33;;